createdAt,value
2018-12-14T00:00:46.649Z,44.89
2018-12-14T00:01:46.788Z,44.92
2018-12-14T00:02:46.525Z,44.96
2018-12-14T00:03:46.728Z,44.89
2018-12-14T00:04:46.760Z,44.89
2018-12-14T00:05:46.735Z,44.9
2018-12-14T00:06:46.939Z,44.92
2018-12-14T00:07:46.746Z,44.88
2018-12-14T00:08:46.714Z,44.75
2018-12-14T00:09:46.604Z,44.84
2018-12-14T00:10:46.704Z,44.89
2018-12-14T00:11:46.988Z,44.77
2018-12-14T00:12:47.555Z,44.85
2018-12-14T00:13:46.878Z,44.83
2018-12-14T00:14:47.048Z,44.82
2018-12-14T00:15:46.710Z,44.78
2018-12-14T00:16:46.974Z,44.75
2018-12-14T00:17:46.813Z,44.78
2018-12-14T00:18:46.759Z,44.83
2018-12-14T00:19:46.772Z,44.83
2018-12-14T00:20:46.938Z,44.77
2018-12-14T00:21:46.952Z,44.81
2018-12-14T00:22:47.099Z,44.75
2018-12-14T00:23:46.570Z,44.72
2018-12-14T00:24:46.725Z,44.77
2018-12-14T00:25:46.578Z,44.89
2018-12-14T00:26:46.691Z,44.77
2018-12-14T00:27:46.645Z,44.83
2018-12-14T00:28:46.975Z,44.78
2018-12-14T00:29:46.969Z,44.72
2018-12-14T00:30:46.616Z,44.75
2018-12-14T00:31:46.756Z,44.71
2018-12-14T00:32:46.922Z,44.79
2018-12-14T00:33:46.722Z,44.73
2018-12-14T00:34:47.044Z,44.75
2018-12-14T00:35:46.730Z,44.74
2018-12-14T00:36:46.545Z,44.72
2018-12-14T00:37:46.661Z,44.77
2018-12-14T00:38:47.028Z,44.7
2018-12-14T00:39:46.870Z,44.75
2018-12-14T00:40:46.802Z,44.75
2018-12-14T00:41:52.408Z,44.7
2018-12-14T00:42:46.591Z,44.7
2018-12-14T00:43:47.070Z,44.7
2018-12-14T00:44:47.192Z,44.68
2018-12-14T00:45:46.792Z,44.66
2018-12-14T00:46:46.562Z,44.67
2018-12-14T00:47:46.669Z,44.63
2018-12-14T00:48:46.734Z,44.67
2018-12-14T00:49:46.664Z,44.62
2018-12-14T00:50:47.272Z,44.66
2018-12-14T00:51:46.917Z,44.66
2018-12-14T00:52:46.799Z,44.72
2018-12-14T00:53:46.618Z,44.67
2018-12-14T00:54:46.528Z,44.67
2018-12-14T00:55:46.826Z,44.65
2018-12-14T00:56:46.884Z,44.61
2018-12-14T00:57:47.284Z,44.67
2018-12-14T00:58:46.951Z,44.65
2018-12-14T00:59:47.135Z,44.66
2018-12-14T01:00:46.620Z,44.61
2018-12-14T01:01:46.630Z,44.67
2018-12-14T01:02:46.857Z,44.59
2018-12-14T01:03:46.733Z,44.61
2018-12-14T01:04:46.732Z,44.62
2018-12-14T01:05:46.635Z,44.61
2018-12-14T01:06:47.571Z,44.67
2018-12-14T01:07:46.718Z,44.62
2018-12-14T01:08:46.868Z,44.66
2018-12-14T01:09:46.714Z,44.68
2018-12-14T01:10:46.750Z,44.7
2018-12-14T01:11:47.067Z,44.6
2018-12-14T01:12:46.754Z,44.67
2018-12-14T01:13:47.173Z,44.72
2018-12-14T01:14:47.637Z,44.68
2018-12-14T01:15:46.551Z,44.62
2018-12-14T01:16:46.777Z,44.65
2018-12-14T01:17:46.812Z,44.7
2018-12-14T01:18:46.736Z,44.68
2018-12-14T01:19:46.491Z,44.66
2018-12-14T01:20:47.054Z,44.63
2018-12-14T01:21:46.741Z,44.58
2018-12-14T01:22:48.071Z,44.66
2018-12-14T01:23:46.683Z,44.65
2018-12-14T01:24:47.445Z,44.64
2018-12-14T01:25:46.955Z,44.64
2018-12-14T01:26:47.078Z,44.66
2018-12-14T01:27:46.588Z,44.62
2018-12-14T01:28:46.752Z,44.63
2018-12-14T01:29:46.854Z,44.63
2018-12-14T01:30:46.496Z,44.66
2018-12-14T01:31:46.642Z,44.62
2018-12-14T01:32:46.599Z,44.63
2018-12-14T01:33:46.809Z,44.64
2018-12-14T01:34:46.554Z,44.68
2018-12-14T01:35:46.812Z,44.71
2018-12-14T01:36:46.959Z,44.65
2018-12-14T01:37:46.839Z,44.65
2018-12-14T01:38:46.751Z,44.66
2018-12-14T01:39:46.967Z,44.7
2018-12-14T01:40:46.940Z,44.63
2018-12-14T01:41:46.795Z,44.66
2018-12-14T01:42:46.773Z,44.62
2018-12-14T01:43:47.013Z,44.62
2018-12-14T01:44:47.120Z,44.63
2018-12-14T01:45:46.715Z,44.67
2018-12-14T01:46:46.805Z,44.61
2018-12-14T01:47:46.936Z,44.6
2018-12-14T01:48:46.591Z,44.6
2018-12-14T01:49:47.126Z,44.65
2018-12-14T01:50:46.571Z,44.69
2018-12-14T01:51:46.844Z,44.67
2018-12-14T01:52:46.537Z,44.68
2018-12-14T01:53:46.948Z,44.69
2018-12-14T01:54:46.734Z,44.67
2018-12-14T01:55:46.975Z,44.66
2018-12-14T01:56:46.674Z,44.59
2018-12-14T01:57:47.376Z,44.6
2018-12-14T01:58:46.720Z,44.66
2018-12-14T01:59:46.741Z,44.67
2018-12-14T02:00:46.905Z,44.64
2018-12-14T02:01:47.036Z,44.62
2018-12-14T02:02:47.044Z,44.57
2018-12-14T02:03:46.939Z,44.65
2018-12-14T02:04:46.916Z,44.64
2018-12-14T02:05:46.938Z,44.61
2018-12-14T02:06:46.760Z,44.64
2018-12-14T02:07:46.947Z,44.6
2018-12-14T02:08:47.606Z,44.64
2018-12-14T02:09:46.561Z,44.69
2018-12-14T02:10:46.712Z,44.67
2018-12-14T02:11:46.526Z,44.67
2018-12-14T02:12:46.785Z,44.64
2018-12-14T02:13:46.907Z,44.64
2018-12-14T02:14:46.608Z,44.67
2018-12-14T02:15:46.533Z,44.65
2018-12-14T02:16:47.014Z,44.65
2018-12-14T02:17:46.756Z,44.68
2018-12-14T02:18:46.823Z,44.62
2018-12-14T02:19:47.046Z,44.69
2018-12-14T02:20:47.036Z,44.69
2018-12-14T02:21:46.912Z,44.62
2018-12-14T02:22:46.951Z,44.7
2018-12-14T02:23:46.612Z,44.66
2018-12-14T02:24:46.541Z,44.69
2018-12-14T02:25:46.545Z,44.69
2018-12-14T02:26:46.716Z,44.69
2018-12-14T02:27:46.782Z,44.67
2018-12-14T02:28:46.812Z,44.68
2018-12-14T02:29:46.811Z,44.71
2018-12-14T02:30:46.955Z,44.62
2018-12-14T02:31:46.945Z,44.68
2018-12-14T02:32:46.987Z,44.71
2018-12-14T02:33:46.528Z,44.68
2018-12-14T02:34:46.735Z,44.71
2018-12-14T02:35:46.898Z,44.68
2018-12-14T02:36:47.046Z,44.68
2018-12-14T02:37:46.586Z,44.66
2018-12-14T02:38:46.896Z,44.68
2018-12-14T02:39:46.811Z,44.63
2018-12-14T02:40:47.110Z,44.69
2018-12-14T02:41:46.637Z,44.64
2018-12-14T02:42:46.716Z,44.65
2018-12-14T02:43:46.962Z,44.72
2018-12-14T02:44:47.066Z,44.66
2018-12-14T02:45:46.887Z,44.66
2018-12-14T02:46:46.592Z,44.7
2018-12-14T02:47:47.079Z,44.7
2018-12-14T02:48:46.865Z,44.64
2018-12-14T02:49:46.637Z,44.64
2018-12-14T02:50:46.592Z,44.66
2018-12-14T02:51:46.642Z,44.64
2018-12-14T02:52:47.593Z,44.63
2018-12-14T02:53:46.773Z,44.68
2018-12-14T02:54:47.197Z,44.66
2018-12-14T02:55:46.694Z,44.68
2018-12-14T02:56:46.698Z,44.64
2018-12-14T02:57:46.528Z,44.72
2018-12-14T02:58:46.589Z,44.7
2018-12-14T02:59:46.837Z,44.73
2018-12-14T03:00:46.811Z,44.68
2018-12-14T03:01:46.749Z,44.67
2018-12-14T03:02:47.165Z,44.69
2018-12-14T03:03:47.020Z,44.67
2018-12-14T03:04:46.407Z,44.69
2018-12-14T03:05:46.780Z,44.66
2018-12-14T03:06:46.771Z,44.62
2018-12-14T03:07:46.583Z,44.64
2018-12-14T03:08:46.770Z,44.7
2018-12-14T03:09:46.571Z,44.68
2018-12-14T03:10:46.604Z,44.68
2018-12-14T03:11:46.480Z,44.69
2018-12-14T03:12:46.901Z,44.68
2018-12-14T03:13:46.762Z,44.63
2018-12-14T03:14:46.558Z,44.68
2018-12-14T03:15:46.739Z,44.63
2018-12-14T03:16:46.766Z,44.65
2018-12-14T03:17:46.575Z,44.65
2018-12-14T03:18:46.527Z,44.72
2018-12-14T03:19:46.590Z,44.71
2018-12-14T03:20:47.056Z,44.69
2018-12-14T03:21:46.935Z,44.68
2018-12-14T03:22:46.773Z,44.67
2018-12-14T03:23:46.515Z,44.66
2018-12-14T03:24:46.585Z,44.7
2018-12-14T03:25:46.386Z,44.64
2018-12-14T03:26:46.687Z,44.65
2018-12-14T03:27:46.423Z,44.64
2018-12-14T03:28:46.543Z,44.67
2018-12-14T03:29:46.825Z,44.64
2018-12-14T03:30:46.550Z,44.71
2018-12-14T03:31:46.915Z,44.7
2018-12-14T03:32:47.508Z,44.68
2018-12-14T03:33:46.817Z,44.66
2018-12-14T03:34:46.747Z,44.67
2018-12-14T03:35:46.910Z,44.75
2018-12-14T03:36:47.124Z,44.68
2018-12-14T03:37:46.496Z,44.77
2018-12-14T03:38:46.743Z,44.62
2018-12-14T03:39:46.541Z,44.69
2018-12-14T03:40:46.603Z,44.62
2018-12-14T03:41:46.750Z,44.61
2018-12-14T03:42:46.814Z,44.64
2018-12-14T03:43:46.961Z,44.63
2018-12-14T03:44:46.860Z,44.56
2018-12-14T03:45:46.493Z,44.66
2018-12-14T03:46:46.778Z,44.65
2018-12-14T03:47:46.648Z,44.65
2018-12-14T03:48:46.658Z,44.65
2018-12-14T03:49:46.898Z,44.63
2018-12-14T03:50:46.602Z,44.67
2018-12-14T03:51:46.893Z,44.67
2018-12-14T03:52:46.803Z,44.65
2018-12-14T03:53:46.834Z,44.71
2018-12-14T03:54:46.942Z,44.66
2018-12-14T03:55:46.922Z,44.65
2018-12-14T03:56:46.785Z,44.66
2018-12-14T03:57:46.525Z,44.6
2018-12-14T03:58:46.726Z,44.61
2018-12-14T03:59:46.603Z,44.6
2018-12-14T04:00:46.534Z,44.68
2018-12-14T04:01:46.882Z,44.68
2018-12-14T04:02:46.638Z,44.68
2018-12-14T04:03:46.749Z,44.66
2018-12-14T04:04:46.598Z,44.67
2018-12-14T04:05:46.677Z,44.65
2018-12-14T04:06:46.506Z,44.68
2018-12-14T04:07:46.593Z,44.57
2018-12-14T04:08:47.353Z,44.66
2018-12-14T04:09:46.596Z,44.7
2018-12-14T04:10:46.708Z,44.66
2018-12-14T04:11:46.899Z,44.72
2018-12-14T04:12:46.757Z,44.68
2018-12-14T04:13:46.575Z,44.64
2018-12-14T04:14:47.191Z,44.67
2018-12-14T04:15:46.497Z,44.68
2018-12-14T04:16:46.861Z,44.61
2018-12-14T04:17:46.830Z,44.65
2018-12-14T04:18:47.525Z,44.66
2018-12-14T04:19:46.701Z,44.65
2018-12-14T04:20:47.470Z,44.7
2018-12-14T04:21:46.568Z,44.66
2018-12-14T04:22:46.585Z,44.67
2018-12-14T04:23:46.760Z,44.62
2018-12-14T04:24:47.158Z,44.67
2018-12-14T04:25:46.597Z,44.61
2018-12-14T04:26:46.924Z,44.67
2018-12-14T04:27:46.491Z,44.62
2018-12-14T04:28:47.136Z,44.62
2018-12-14T04:29:46.554Z,44.7
2018-12-14T04:30:46.460Z,44.67
2018-12-14T04:31:46.812Z,44.64
2018-12-14T04:32:46.790Z,44.63
2018-12-14T04:33:46.633Z,44.68
2018-12-14T04:34:46.495Z,44.71
2018-12-14T04:35:46.671Z,44.7
2018-12-14T04:36:46.790Z,44.7
2018-12-14T04:37:46.639Z,44.68
2018-12-14T04:38:47.115Z,44.73
2018-12-14T04:39:46.546Z,44.72
2018-12-14T04:40:46.713Z,44.79
2018-12-14T04:41:46.463Z,44.8
2018-12-14T04:42:49.296Z,44.78
2018-12-14T04:43:46.727Z,44.79
2018-12-14T04:44:46.895Z,44.87
2018-12-14T04:45:47.144Z,44.93
2018-12-14T04:46:46.468Z,44.96
2018-12-14T04:47:46.644Z,45.02
2018-12-14T04:48:47.260Z,45.07
2018-12-14T04:49:46.518Z,45.02
2018-12-14T04:50:46.445Z,45.11
2018-12-14T04:51:46.840Z,45.17
2018-12-14T04:52:46.796Z,45.24
2018-12-14T04:53:46.494Z,45.19
2018-12-14T04:54:46.944Z,45.27
2018-12-14T04:55:46.506Z,45.3
2018-12-14T04:56:46.838Z,45.35
2018-12-14T04:57:46.461Z,45.38
2018-12-14T04:58:46.488Z,45.39
2018-12-14T04:59:46.739Z,45.46
2018-12-14T05:00:46.796Z,45.46
2018-12-14T05:01:46.783Z,45.44
2018-12-14T05:02:46.871Z,45.56
2018-12-14T05:03:46.493Z,45.51
2018-12-14T05:04:46.801Z,45.54
2018-12-14T05:05:46.606Z,45.52
2018-12-14T05:06:46.514Z,45.54
2018-12-14T05:07:46.596Z,45.54
2018-12-14T05:08:46.879Z,45.56
2018-12-14T05:09:46.548Z,45.54
2018-12-14T05:10:46.515Z,45.54
2018-12-14T05:11:46.745Z,45.53
2018-12-14T05:12:46.957Z,45.54
2018-12-14T05:13:46.584Z,45.55
2018-12-14T05:14:46.501Z,45.55
2018-12-14T05:15:46.551Z,45.51
2018-12-14T05:16:46.874Z,45.54
2018-12-14T05:17:46.805Z,45.52
2018-12-14T05:18:46.675Z,45.52
2018-12-14T05:19:46.741Z,45.5
2018-12-14T05:20:46.948Z,45.46
2018-12-14T05:21:47.034Z,45.49
2018-12-14T05:22:47.101Z,45.44
2018-12-14T05:23:46.488Z,45.39
2018-12-14T05:24:46.517Z,45.43
2018-12-14T05:25:46.420Z,45.4
2018-12-14T05:26:46.533Z,45.42
2018-12-14T05:27:47.552Z,45.38
2018-12-14T05:28:46.452Z,45.41
2018-12-14T05:29:46.998Z,45.34
2018-12-14T05:30:46.966Z,45.38
2018-12-14T05:31:46.954Z,45.32
2018-12-14T05:32:46.386Z,45.34
2018-12-14T05:33:46.443Z,45.36
2018-12-14T05:34:46.909Z,45.32
2018-12-14T05:35:46.540Z,45.3
2018-12-14T05:36:46.773Z,45.36
2018-12-14T05:37:46.401Z,45.35
2018-12-14T05:38:46.958Z,45.36
2018-12-14T05:39:46.961Z,45.32
2018-12-14T05:40:46.740Z,45.39
2018-12-14T05:41:46.979Z,45.33
2018-12-14T05:42:46.529Z,45.36
2018-12-14T05:43:46.749Z,45.3
2018-12-14T05:44:46.823Z,45.34
2018-12-14T05:45:46.447Z,45.33
2018-12-14T05:46:46.625Z,45.34
2018-12-14T05:47:46.474Z,45.31
2018-12-14T05:48:46.572Z,45.35
2018-12-14T05:49:46.396Z,45.32
2018-12-14T05:50:46.797Z,45.38
2018-12-14T05:51:46.821Z,45.35
2018-12-14T05:52:47.124Z,45.35
2018-12-14T05:53:46.828Z,45.34
2018-12-14T05:54:46.554Z,45.36
2018-12-14T05:55:46.535Z,45.34
2018-12-14T05:56:46.515Z,45.34
2018-12-14T05:57:46.845Z,45.35
2018-12-14T05:58:46.599Z,45.38
2018-12-14T05:59:46.496Z,45.3
2018-12-14T06:00:46.605Z,45.36
2018-12-14T06:01:46.558Z,45.33
2018-12-14T06:02:46.546Z,45.39
2018-12-14T06:03:46.522Z,45.36
2018-12-14T06:04:46.824Z,45.34
2018-12-14T06:05:46.609Z,45.3
2018-12-14T06:06:46.583Z,45.37
2018-12-14T06:07:46.534Z,45.32
2018-12-14T06:08:47.287Z,45.3
2018-12-14T06:09:46.353Z,45.36
2018-12-14T06:10:46.661Z,45.35
2018-12-14T06:11:46.510Z,45.34
2018-12-14T06:12:46.906Z,45.35
2018-12-14T06:13:46.513Z,45.31
2018-12-14T06:14:46.903Z,45.32
2018-12-14T06:15:46.410Z,45.34
2018-12-14T06:16:46.505Z,45.35
2018-12-14T06:17:46.416Z,45.38
2018-12-14T06:18:46.367Z,45.34
2018-12-14T06:19:46.582Z,45.33
2018-12-14T06:20:46.749Z,45.38
2018-12-14T06:21:46.939Z,45.32
2018-12-14T06:22:47.265Z,45.33
2018-12-14T06:23:46.534Z,45.33
2018-12-14T06:24:46.489Z,45.32
2018-12-14T06:25:46.691Z,45.37
2018-12-14T06:26:46.581Z,45.33
2018-12-14T06:27:46.313Z,45.35
2018-12-14T06:28:46.534Z,45.31
2018-12-14T06:29:46.423Z,45.33
2018-12-14T06:30:46.605Z,45.31
2018-12-14T06:31:46.432Z,45.36
2018-12-14T06:32:46.497Z,45.3
2018-12-14T06:33:46.673Z,45.29
2018-12-14T06:34:46.548Z,45.33
2018-12-14T06:35:46.771Z,45.32
2018-12-14T06:36:47.444Z,45.31
2018-12-14T06:37:46.557Z,45.37
2018-12-14T06:38:46.402Z,45.35
2018-12-14T06:39:46.657Z,45.4
2018-12-14T06:40:46.600Z,45.39
2018-12-14T06:41:46.495Z,45.38
2018-12-14T06:42:47.079Z,45.33
2018-12-14T06:43:46.509Z,45.37
2018-12-14T06:44:46.473Z,45.39
2018-12-14T06:45:46.372Z,45.39
2018-12-14T06:46:47.071Z,45.4
2018-12-14T06:47:46.399Z,45.37
2018-12-14T06:48:46.452Z,45.4
2018-12-14T06:49:46.814Z,45.41
2018-12-14T06:50:46.499Z,45.37
2018-12-14T06:51:46.561Z,45.38
2018-12-14T06:52:46.390Z,45.38
2018-12-14T06:53:47.225Z,45.37
2018-12-14T06:54:46.367Z,45.36
2018-12-14T06:55:46.846Z,45.37
2018-12-14T06:56:46.788Z,45.41
2018-12-14T06:57:46.509Z,45.38
2018-12-14T06:58:46.666Z,45.41
2018-12-14T06:59:46.424Z,45.43
2018-12-14T07:00:46.824Z,45.4
2018-12-14T07:01:46.707Z,45.39
2018-12-14T07:02:46.689Z,45.45
2018-12-14T07:03:46.423Z,45.39
2018-12-14T07:04:46.849Z,45.45
2018-12-14T07:05:47.068Z,45.44
2018-12-14T07:06:46.781Z,45.4
2018-12-14T07:07:46.866Z,45.45
2018-12-14T07:08:46.685Z,45.43
2018-12-14T07:09:46.846Z,45.39
2018-12-14T07:10:46.400Z,45.41
2018-12-14T07:11:47.014Z,45.4
2018-12-14T07:12:46.976Z,45.43
2018-12-14T07:13:46.753Z,45.43
2018-12-14T07:14:46.394Z,45.4
2018-12-14T07:15:46.665Z,45.42
2018-12-14T07:16:46.559Z,45.38
2018-12-14T07:17:46.434Z,45.44
2018-12-14T07:18:46.586Z,45.38
2018-12-14T07:19:47.043Z,45.42
2018-12-14T07:20:46.693Z,45.39
2018-12-14T07:21:46.800Z,45.4
2018-12-14T07:22:46.664Z,45.42
2018-12-14T07:23:46.385Z,45.39
2018-12-14T07:24:46.605Z,45.36
2018-12-14T07:25:46.506Z,45.35
2018-12-14T07:26:47.111Z,45.4
2018-12-14T07:27:46.481Z,45.35
2018-12-14T07:28:46.670Z,45.36
2018-12-14T07:29:46.780Z,45.33
2018-12-14T07:30:46.764Z,45.4
2018-12-14T07:31:46.739Z,45.29
2018-12-14T07:32:46.339Z,45.36
2018-12-14T07:33:46.349Z,45.32
2018-12-14T07:34:46.858Z,45.33
2018-12-14T07:35:46.789Z,45.33
2018-12-14T07:36:47.170Z,45.35
2018-12-14T07:37:46.811Z,45.33
2018-12-14T07:38:48.582Z,45.33
2018-12-14T07:39:46.644Z,45.33
2018-12-14T07:40:46.593Z,45.3
2018-12-14T07:41:46.401Z,45.35
2018-12-14T07:42:46.388Z,45.36
2018-12-14T07:43:47.203Z,45.36
2018-12-14T07:44:48.286Z,45.33
2018-12-14T07:45:46.824Z,45.38
2018-12-14T07:46:46.818Z,45.37
2018-12-14T07:47:46.513Z,45.35
2018-12-14T07:48:46.521Z,45.39
2018-12-14T07:49:46.852Z,45.37
2018-12-14T07:50:46.413Z,45.38
2018-12-14T07:51:46.752Z,45.4
2018-12-14T07:52:46.754Z,45.33
2018-12-14T07:53:46.602Z,45.4
2018-12-14T07:54:46.674Z,45.28
2018-12-14T07:55:46.629Z,45.36
2018-12-14T07:56:46.427Z,45.38
2018-12-14T07:57:46.559Z,45.37
2018-12-14T07:58:46.994Z,45.39
2018-12-14T07:59:46.651Z,45.38
2018-12-14T08:00:47.037Z,45.38
2018-12-14T08:01:46.417Z,45.39
2018-12-14T08:02:46.552Z,45.36
2018-12-14T08:03:46.417Z,45.27
2018-12-14T08:04:46.837Z,45.41
2018-12-14T08:05:46.370Z,45.37
2018-12-14T08:06:46.853Z,45.36
2018-12-14T08:07:46.821Z,45.23
2018-12-14T08:08:46.880Z,45.33
2018-12-14T08:09:46.832Z,45.37
2018-12-14T08:10:46.313Z,45.36
2018-12-14T08:11:46.533Z,45.31
2018-12-14T08:12:46.628Z,45.36
2018-12-14T08:13:47.632Z,45.29
2018-12-14T08:14:46.429Z,45.31
2018-12-14T08:15:46.535Z,45.33
2018-12-14T08:16:46.925Z,45.31
2018-12-14T08:17:46.560Z,45.35
2018-12-14T08:18:46.847Z,45.35
2018-12-14T08:19:46.471Z,45.25
2018-12-14T08:20:46.481Z,45.28
2018-12-14T08:21:46.396Z,45.28
2018-12-14T08:22:46.530Z,45.27
2018-12-14T08:23:46.506Z,45.34
2018-12-14T08:24:46.423Z,45.29
2018-12-14T08:25:46.516Z,45.23
2018-12-14T08:26:46.728Z,45.28
2018-12-14T08:27:46.476Z,45.26
2018-12-14T08:28:46.423Z,45.3
2018-12-14T08:29:46.841Z,45.24
2018-12-14T08:30:46.368Z,45.27
2018-12-14T08:31:46.462Z,45.34
2018-12-14T08:32:46.698Z,45.29
2018-12-14T08:33:46.463Z,45.24
2018-12-14T08:34:51.658Z,45.26
2018-12-14T08:35:46.420Z,45.21
2018-12-14T08:36:46.780Z,45.26
2018-12-14T08:37:46.358Z,45.16
2018-12-14T08:38:47.377Z,45.2
2018-12-14T08:39:46.908Z,45.23
2018-12-14T08:40:46.546Z,45.13
2018-12-14T08:41:46.597Z,45.15
2018-12-14T08:42:46.329Z,45.25
2018-12-14T08:43:46.408Z,45.21
2018-12-14T08:44:46.404Z,45.2
2018-12-14T08:45:47.036Z,45.17
2018-12-14T08:46:46.670Z,45.13
2018-12-14T08:47:46.761Z,45.14
2018-12-14T08:48:46.468Z,45.21
2018-12-14T08:49:46.777Z,45.22
2018-12-14T08:50:46.783Z,45.2
2018-12-14T08:51:46.440Z,45.26
2018-12-14T08:52:46.702Z,45.2
2018-12-14T08:53:46.632Z,45.28
2018-12-14T08:54:46.558Z,45.29
2018-12-14T08:55:47.164Z,45.26
2018-12-14T08:56:46.806Z,45.27
2018-12-14T08:57:46.803Z,45.3
2018-12-14T08:58:46.610Z,45.3
2018-12-14T08:59:46.884Z,45.26
2018-12-14T09:00:47.415Z,45.28
2018-12-14T09:01:46.422Z,45.29
2018-12-14T09:02:46.285Z,45.27
2018-12-14T09:03:46.418Z,45.28
2018-12-14T09:04:46.473Z,45.29
2018-12-14T09:05:46.573Z,45.33
2018-12-14T09:06:46.501Z,45.26
2018-12-14T09:07:47.003Z,45.28
2018-12-14T09:08:46.613Z,45.28
2018-12-14T09:09:47.628Z,45.32
2018-12-14T09:10:46.844Z,45.31
2018-12-14T09:11:46.301Z,45.27
2018-12-14T09:12:46.449Z,45.28
2018-12-14T09:13:48.350Z,45.28
2018-12-14T09:14:47.259Z,45.24
2018-12-14T09:15:46.951Z,45.27
2018-12-14T09:16:46.773Z,45.26
2018-12-14T09:17:46.561Z,45.19
2018-12-14T09:18:46.582Z,45.22
2018-12-14T09:19:46.321Z,45.21
2018-12-14T09:20:46.388Z,45.19
2018-12-14T09:21:46.789Z,45.23
2018-12-14T09:22:46.381Z,45.27
2018-12-14T09:23:46.571Z,45.25
2018-12-14T09:24:46.314Z,45.22
2018-12-14T09:25:46.816Z,45.24
2018-12-14T09:26:46.786Z,45.28
2018-12-14T09:27:46.381Z,45.23
2018-12-14T09:28:46.522Z,45.24
2018-12-14T09:29:47.197Z,45.23
2018-12-14T09:30:46.869Z,45.27
2018-12-14T09:31:46.467Z,45.26
2018-12-14T09:32:46.970Z,45.21
2018-12-14T09:33:46.332Z,45.22
2018-12-14T09:34:47.003Z,45.22
2018-12-14T09:35:46.641Z,45.21
2018-12-14T09:36:46.786Z,45.26
2018-12-14T09:37:46.805Z,45.16
2018-12-14T09:38:46.290Z,45.15
2018-12-14T09:39:46.851Z,45.22
2018-12-14T09:40:46.341Z,45.24
2018-12-14T09:41:46.991Z,45.16
2018-12-14T09:42:46.350Z,45.25
2018-12-14T09:43:46.338Z,45.14
2018-12-14T09:44:46.595Z,45.21
2018-12-14T09:45:46.650Z,45.23
2018-12-14T09:46:47.382Z,45.16
2018-12-14T09:47:47.394Z,45.2
2018-12-14T09:48:46.781Z,45.23
2018-12-14T09:49:46.725Z,45.2
2018-12-14T09:50:46.433Z,45.24
2018-12-14T09:51:46.358Z,45.21
2018-12-14T09:52:47.016Z,45.23
2018-12-14T09:53:46.470Z,45.2
2018-12-14T09:54:46.785Z,45.2
2018-12-14T09:55:46.387Z,45.16
2018-12-14T09:56:46.249Z,45.23
2018-12-14T09:57:46.343Z,45.21
2018-12-14T09:58:46.833Z,45.2
2018-12-14T09:59:46.334Z,45.22
2018-12-14T10:00:46.548Z,45.19
2018-12-14T10:01:46.491Z,45.17
2018-12-14T10:02:46.824Z,45.21
2018-12-14T10:03:46.376Z,45.16
2018-12-14T10:04:46.780Z,45.19
2018-12-14T10:05:46.397Z,45.16
2018-12-14T10:06:46.441Z,44.89
2018-12-14T10:07:47.427Z,45.06
2018-12-14T10:08:46.792Z,45.23
2018-12-14T10:09:46.776Z,45.3
2018-12-14T10:10:46.269Z,45.2
2018-12-14T10:11:46.459Z,45.08
2018-12-14T10:12:46.592Z,45.09
2018-12-14T10:13:46.450Z,45.13
2018-12-14T10:14:46.280Z,45.15
2018-12-14T10:15:46.457Z,45.16
2018-12-14T10:16:46.446Z,45.12
2018-12-14T10:17:46.806Z,45.14
2018-12-14T10:18:46.379Z,45.2
2018-12-14T10:19:46.441Z,45.23
2018-12-14T10:20:46.711Z,45.25
2018-12-14T10:21:47.142Z,45.24
2018-12-14T10:22:46.638Z,45.32
2018-12-14T10:23:46.901Z,45.35
2018-12-14T10:24:46.520Z,45.32
2018-12-14T10:25:46.631Z,45.33
2018-12-14T10:26:46.602Z,45.3
2018-12-14T10:27:46.384Z,45.25
2018-12-14T10:28:47.504Z,45.27
2018-12-14T10:29:46.693Z,45.3
2018-12-14T10:30:46.493Z,45.29
2018-12-14T10:31:46.613Z,45.25
2018-12-14T10:32:46.677Z,45.27
2018-12-14T10:33:46.557Z,45.25
2018-12-14T10:34:46.241Z,45.29
2018-12-14T10:35:46.951Z,45.2
2018-12-14T10:36:46.354Z,45.2
2018-12-14T10:37:46.733Z,45.22
2018-12-14T10:38:46.565Z,45.2
2018-12-14T10:39:46.531Z,45.2
2018-12-14T10:40:46.351Z,45.25
2018-12-14T10:41:46.236Z,45.24
2018-12-14T10:42:46.746Z,45.19
2018-12-14T10:43:46.593Z,45.24
2018-12-14T10:44:46.440Z,45.22
2018-12-14T10:45:46.284Z,45.23
2018-12-14T10:46:46.386Z,45.22
2018-12-14T10:47:46.350Z,45.23
2018-12-14T10:48:46.329Z,45.17
2018-12-14T10:49:47.027Z,45.22
2018-12-14T10:50:46.380Z,45.13
2018-12-14T10:51:46.502Z,45.13
2018-12-14T10:52:46.289Z,45.16
2018-12-14T10:53:46.439Z,45.2
2018-12-14T10:54:46.459Z,45.2
2018-12-14T10:55:46.432Z,45.14
2018-12-14T10:56:46.898Z,45.2
2018-12-14T10:57:46.436Z,45.2
2018-12-14T10:58:46.578Z,45.18
2018-12-14T10:59:46.330Z,45.21
2018-12-14T11:00:46.952Z,45.16
2018-12-14T11:01:46.565Z,45.21
2018-12-14T11:02:46.629Z,45.17
2018-12-14T11:03:46.461Z,45.12
2018-12-14T11:04:46.299Z,45.18
2018-12-14T11:05:47.363Z,45.13
2018-12-14T11:06:46.620Z,45.19
2018-12-14T11:07:46.504Z,45.18
2018-12-14T11:08:46.561Z,45.23
2018-12-14T11:09:47.013Z,45.23
2018-12-14T11:10:46.579Z,45.21
2018-12-14T11:11:46.433Z,45.23
2018-12-14T11:12:47.347Z,45.18
2018-12-14T11:13:46.802Z,45.19
2018-12-14T11:14:46.958Z,45.23
2018-12-14T11:15:46.879Z,45.18
2018-12-14T11:16:46.916Z,45.17
2018-12-14T11:17:46.372Z,45.18
2018-12-14T11:18:46.389Z,45.17
2018-12-14T11:19:46.517Z,45.2
2018-12-14T11:20:46.835Z,45.18
2018-12-14T11:21:46.938Z,45.21
2018-12-14T11:22:46.483Z,45.22
2018-12-14T11:23:46.665Z,45.24
2018-12-14T11:24:46.231Z,45.21
2018-12-14T11:25:46.781Z,45.19
2018-12-14T11:26:46.364Z,45.2
2018-12-14T11:27:47.017Z,45.2
2018-12-14T11:28:46.716Z,45.23
2018-12-14T11:29:46.767Z,45.18
2018-12-14T11:30:47.327Z,45.14
2018-12-14T11:31:46.273Z,45.17
2018-12-14T11:32:46.526Z,45.19
2018-12-14T11:33:46.510Z,45.18
2018-12-14T11:34:46.809Z,45.12
2018-12-14T11:35:46.732Z,45.2
2018-12-14T11:36:46.508Z,45.22
2018-12-14T11:37:46.539Z,45.14
2018-12-14T11:38:46.334Z,45.12
2018-12-14T11:39:46.421Z,45.19
2018-12-14T11:40:46.784Z,45.21
2018-12-14T11:41:46.310Z,45.19
2018-12-14T11:42:46.827Z,45.19
2018-12-14T11:43:46.415Z,45.21
2018-12-14T11:44:46.246Z,45.18
2018-12-14T11:45:46.262Z,45.2
2018-12-14T11:46:46.642Z,45.23
2018-12-14T11:47:46.546Z,45.21
2018-12-14T11:48:46.359Z,45.18
2018-12-14T11:49:46.239Z,45.2
2018-12-14T11:50:46.376Z,45.23
2018-12-14T11:51:46.534Z,45.17
2018-12-14T11:52:46.418Z,45.24
2018-12-14T11:53:46.216Z,45.17
2018-12-14T11:54:46.272Z,45.19
2018-12-14T11:55:46.254Z,45.2
2018-12-14T11:56:46.720Z,45.24
2018-12-14T11:57:46.742Z,45.21
2018-12-14T11:58:46.521Z,45.23
2018-12-14T11:59:46.651Z,45.23
2018-12-14T12:00:46.612Z,45.2
2018-12-14T12:01:46.309Z,45.15
2018-12-14T12:02:46.560Z,45.27
2018-12-14T12:03:46.696Z,45.2
2018-12-14T12:04:46.332Z,45.19
2018-12-14T12:05:46.535Z,45.27
2018-12-14T12:06:46.459Z,45.21
2018-12-14T12:07:46.773Z,45.25
2018-12-14T12:08:46.699Z,45.23
2018-12-14T12:09:46.840Z,45.25
2018-12-14T12:10:46.261Z,45.25
2018-12-14T12:11:46.609Z,45.23
2018-12-14T12:12:46.596Z,45.23
2018-12-14T12:13:46.344Z,45.19
2018-12-14T12:14:46.470Z,45.25
2018-12-14T12:15:46.519Z,45.24
2018-12-14T12:16:46.353Z,45.23
2018-12-14T12:17:49.970Z,45.22
2018-12-14T12:18:46.724Z,45.2
2018-12-14T12:19:46.516Z,45.18
2018-12-14T12:20:46.629Z,45.2
2018-12-14T12:21:46.511Z,45.18
2018-12-14T12:22:46.449Z,45.24
2018-12-14T12:23:46.354Z,45.24
2018-12-14T12:24:46.498Z,45.22
2018-12-14T12:25:46.610Z,45.25
2018-12-14T12:26:46.410Z,45.23
2018-12-14T12:27:46.243Z,45.22
2018-12-14T12:28:46.420Z,45.23
2018-12-14T12:29:46.860Z,45.21
2018-12-14T12:30:46.760Z,45.21
2018-12-14T12:31:46.195Z,45.26
2018-12-14T12:32:46.341Z,45.23
2018-12-14T12:33:46.170Z,45.25
2018-12-14T12:34:46.273Z,45.21
2018-12-14T12:35:46.505Z,45.23
2018-12-14T12:36:46.315Z,45.23
2018-12-14T12:37:46.395Z,45.23
2018-12-14T12:38:46.270Z,45.23
2018-12-14T12:39:46.436Z,45.16
2018-12-14T12:40:46.285Z,45.25
2018-12-14T12:41:46.415Z,45.04
2018-12-14T12:42:46.312Z,44.18
2018-12-14T12:43:46.551Z,44.03
2018-12-14T12:44:46.835Z,44.27
2018-12-14T12:45:46.401Z,44.41
2018-12-14T12:46:46.674Z,44.61
2018-12-14T12:47:46.249Z,44.77
2018-12-14T12:48:46.852Z,44.81
2018-12-14T12:49:46.683Z,44.88
2018-12-14T12:50:46.738Z,44.93
2018-12-14T12:51:46.764Z,44.97
2018-12-14T12:52:46.309Z,45
2018-12-14T12:53:46.438Z,44.98
2018-12-14T12:54:46.552Z,45
2018-12-14T12:55:46.455Z,45.06